createdAt,value
2023-04-17T00:04:18.124Z,12.16
2023-04-17T00:11:19.982Z,12.09
2023-04-17T00:18:21.541Z,12.13
2023-04-17T00:25:23.277Z,12.19
2023-04-17T00:32:25.044Z,12.24
2023-04-17T00:39:27.019Z,12.17
2023-04-17T00:46:28.696Z,12.25
2023-04-17T00:53:33.519Z,12.25
2023-04-17T01:00:35.351Z,12.18
2023-04-17T01:07:37.320Z,12.01
2023-04-17T01:14:38.873Z,11.95
2023-04-17T01:21:41.404Z,11.90
2023-04-17T01:28:43.150Z,11.88
2023-04-17T01:35:44.903Z,11.68
2023-04-17T01:42:46.651Z,11.54
2023-04-17T01:49:48.290Z,11.56
2023-04-17T01:56:49.962Z,11.72
2023-04-17T02:03:51.751Z,11.63
2023-04-17T02:10:53.433Z,11.72
2023-04-17T02:17:55.634Z,11.40
2023-04-17T02:24:57.280Z,11.37
2023-04-17T02:32:01.063Z,11.43
2023-04-17T02:39:02.899Z,11.22
2023-04-17T02:46:04.561Z,11.18
2023-04-17T02:53:06.264Z,10.96
2023-04-17T03:00:08.555Z,11.09
2023-04-17T03:07:10.826Z,10.80
2023-04-17T03:14:13.448Z,10.94
2023-04-17T03:21:15.072Z,11.06
2023-04-17T03:28:16.718Z,11.16
2023-04-17T03:35:19.120Z,11.00
2023-04-17T03:42:21.013Z,10.84
2023-04-17T03:49:22.944Z,10.97
2023-04-17T03:56:26.001Z,10.73
2023-04-17T04:03:28.579Z,10.84
2023-04-17T04:10:32.407Z,10.74
2023-04-17T04:17:34.669Z,10.89
2023-04-17T04:24:38.108Z,10.88
2023-04-17T04:31:40.025Z,10.72
2023-04-17T04:38:42.491Z,10.78
2023-04-17T04:45:56.227Z,10.86
2023-04-17T04:53:01.056Z,10.68
2023-04-17T05:00:14.497Z,10.69
2023-04-17T05:07:18.896Z,10.75
2023-04-17T05:14:20.876Z,10.88
2023-04-17T05:21:23.468Z,10.92
2023-04-17T05:28:27.273Z,10.85
2023-04-17T05:35:31.687Z,10.27
2023-04-17T05:42:34.515Z,10.71
2023-04-17T05:49:36.486Z,11.01
2023-04-17T05:56:38.670Z,10.94
2023-04-17T06:03:40.788Z,11.15
2023-04-17T06:10:48.830Z,11.19
2023-04-17T06:17:50.710Z,11.15
2023-04-17T06:24:53.106Z,11.04
2023-04-17T06:31:54.854Z,11.22
2023-04-17T06:38:57.544Z,10.72
2023-04-17T06:45:59.409Z,10.96
2023-04-17T06:53:01.087Z,11.02
2023-04-17T07:00:03.609Z,11.18
2023-04-17T07:07:05.425Z,11.17
2023-04-17T07:14:06.943Z,11.21
2023-04-17T07:21:08.547Z,11.25
2023-04-17T07:28:10.171Z,11.37
2023-04-17T07:35:11.688Z,11.57
2023-04-17T07:42:13.242Z,11.47
2023-04-17T07:49:14.936Z,11.74
2023-04-17T07:56:17.519Z,11.72
2023-04-17T08:03:22.259Z,12.09
2023-04-17T08:10:24.120Z,12.15
2023-04-17T08:17:26.157Z,12.19
2023-04-17T08:24:27.985Z,12.25
2023-04-17T08:31:29.661Z,11.97
2023-04-17T08:38:31.356Z,12.16
2023-04-17T08:45:32.894Z,11.63
2023-04-17T08:52:38.324Z,12.27
2023-04-17T08:59:43.333Z,12.66
2023-04-17T09:06:54.312Z,12.87
2023-04-17T09:13:56.241Z,13.01
2023-04-17T09:20:59.626Z,12.89
2023-04-17T09:28:11.518Z,12.61
2023-04-17T09:35:25.952Z,12.87
2023-04-17T09:42:27.892Z,13.03
2023-04-17T09:49:33.623Z,13.98
2023-04-17T09:56:36.130Z,14.54
2023-04-17T10:03:38.154Z,15.11
2023-04-17T10:10:40.237Z,14.84
2023-04-17T10:17:41.866Z,14.44
2023-04-17T10:24:49.354Z,14.16
2023-04-17T10:32:09.622Z,14.66
2023-04-17T10:39:18.023Z,14.46
2023-04-17T10:46:19.613Z,14.57
2023-04-17T10:53:40.625Z,15.07
2023-04-17T11:00:51.881Z,14.57
2023-04-17T11:07:53.550Z,14.93
2023-04-17T11:15:01.857Z,15.46
2023-04-17T11:22:03.737Z,15.82
2023-04-17T11:29:19.988Z,15.42
2023-04-17T11:36:21.880Z,14.80
2023-04-17T11:43:23.547Z,14.73
2023-04-17T11:50:29.521Z,15.71
2023-04-17T11:57:41.201Z,15.85
2023-04-17T12:04:42.866Z,15.57
2023-04-17T12:11:44.479Z,15.31
2023-04-17T12:18:46.267Z,15.38
2023-04-17T12:25:47.773Z,14.32
2023-04-17T12:32:49.482Z,14.36
2023-04-17T12:39:51.126Z,14.12
2023-04-17T12:46:52.708Z,13.70
2023-04-17T12:53:54.956Z,13.45
2023-04-17T13:00:56.615Z,14.19
2023-04-17T13:07:59.348Z,13.79
2023-04-17T13:15:00.956Z,13.68
2023-04-17T13:22:02.584Z,13.22
2023-04-17T13:29:04.115Z,13.69
2023-04-17T13:36:06.541Z,13.55
2023-04-17T13:43:09.050Z,13.63
2023-04-17T13:50:10.657Z,13.68
2023-04-17T13:57:14.444Z,13.45
2023-04-17T14:04:16.273Z,13.31
2023-04-17T14:11:19.183Z,13.82
2023-04-17T14:18:21.180Z,13.95
2023-04-17T14:25:22.733Z,13.74
2023-04-17T14:32:24.307Z,13.30
2023-04-17T14:39:25.863Z,12.96
2023-04-17T14:46:27.479Z,13.05
2023-04-17T14:53:29.040Z,13.07
2023-04-17T15:00:31.793Z,13.02
2023-04-17T15:07:33.395Z,12.81
2023-04-17T15:14:35.088Z,12.97
2023-04-17T15:21:36.659Z,12.72
2023-04-17T15:28:38.995Z,12.94
2023-04-17T15:35:40.533Z,12.68
2023-04-17T15:42:42.067Z,13.01
2023-04-17T15:49:43.723Z,12.98
2023-04-17T15:56:45.277Z,12.81
2023-04-17T16:03:47.641Z,12.74
2023-04-17T16:10:49.422Z,12.73
2023-04-17T16:17:51.000Z,13.09
2023-04-17T16:24:52.565Z,13.18
2023-04-17T16:31:54.514Z,13.03
2023-04-17T16:38:56.192Z,12.95
2023-04-17T16:45:58.512Z,13.02
2023-04-17T16:53:01.210Z,12.74
2023-04-17T17:00:03.272Z,12.73
2023-04-17T17:07:04.907Z,12.70
2023-04-17T17:14:06.455Z,12.53
2023-04-17T17:21:07.991Z,12.72
2023-04-17T17:28:09.544Z,12.62
2023-04-17T17:35:11.164Z,12.12
2023-04-17T17:42:12.716Z,12.45
2023-04-17T17:49:14.232Z,12.72
2023-04-17T17:56:15.778Z,12.72
2023-04-17T18:03:17.720Z,12.64
2023-04-17T18:10:19.376Z,12.45
2023-04-17T18:17:21.017Z,12.35
2023-04-17T18:24:22.635Z,12.46
2023-04-17T18:31:26.031Z,12.37
2023-04-17T18:38:27.624Z,12.26
2023-04-17T18:45:29.223Z,12.43
2023-04-17T18:52:30.725Z,11.87
2023-04-17T18:59:32.272Z,12.07
2023-04-17T19:06:33.888Z,12.15
2023-04-17T19:13:35.532Z,11.76
2023-04-17T19:20:37.137Z,12.13
2023-04-17T19:27:38.726Z,11.87
2023-04-17T19:34:40.379Z,12.07
2023-04-17T19:41:42.623Z,11.69
2023-04-17T19:48:44.794Z,11.54
2023-04-17T19:55:46.419Z,11.63
2023-04-17T20:02:48.198Z,11.57
2023-04-17T20:09:49.884Z,11.70
2023-04-17T20:16:51.473Z,11.78
2023-04-17T20:23:54.969Z,11.67
2023-04-17T20:30:56.710Z,11.76
2023-04-17T20:37:58.492Z,11.76
2023-04-17T20:45:00.261Z,11.51
2023-04-17T20:52:02.956Z,11.53
2023-04-17T20:59:04.505Z,11.69
2023-04-17T21:06:06.221Z,11.64
2023-04-17T21:13:07.793Z,11.72
2023-04-17T21:20:09.894Z,11.31
2023-04-17T21:27:11.593Z,11.36
2023-04-17T21:34:13.421Z,11.28
2023-04-17T21:41:15.117Z,11.63
2023-04-17T21:48:16.696Z,11.50
2023-04-17T21:55:18.230Z,11.20
2023-04-17T22:02:19.779Z,11.25
2023-04-17T22:09:21.437Z,11.31
2023-04-17T22:16:23.067Z,11.21
2023-04-17T22:23:24.741Z,11.22
2023-04-17T22:30:26.257Z,10.89
2023-04-17T22:37:27.766Z,11.23
2023-04-17T22:44:29.310Z,11.19
2023-04-17T22:51:31.072Z,10.69
2023-04-17T22:58:33.198Z,10.27
2023-04-17T23:05:34.852Z,10.57
2023-04-17T23:12:36.368Z,10.64
2023-04-17T23:19:37.949Z,10.54
2023-04-17T23:26:39.461Z,10.31
2023-04-17T23:33:41.089Z,10.70
2023-04-17T23:40:42.631Z,10.57
2023-04-17T23:47:44.247Z,10.53
2023-04-17T23:54:45.779Z,10.19
